Time,TemperatureF,DewpointF,PressureIn,WindDirection,WindDirectionDegrees,WindSpeedMPH,WindSpeedGustMPH,Humidity,HourlyPrecipIn,Conditions,Clouds,dailyrainin,SoftwareType,DateUTC
2017-05-24 00:00:00,66.1,60.8,29.61,SSW,203,1.0,2.0,83,0.00,,---,0.00,VWS V15.00,2017-05-24 04:00:00,
2017-05-24 00:05:00,66.0,60.7,29.60,SE,133,3.0,5.0,83,0.00,,---,0.00,VWS V15.00,2017-05-24 04:05:00,
2017-05-24 00:10:00,65.9,60.9,29.61,SSW,194,3.0,5.0,84,0.00,,---,0.00,VWS V15.00,2017-05-24 04:10:00,
2017-05-24 00:15:00,65.8,60.8,29.61,SSE,163,1.0,3.0,84,0.00,,---,0.00,VWS V15.00,2017-05-24 04:15:00,
2017-05-24 00:20:00,65.8,60.8,29.61,South,183,3.0,6.0,84,0.00,,---,0.00,VWS V15.00,2017-05-24 04:20:00,
2017-05-24 00:25:00,65.6,61.0,29.60,East,94,0.0,3.0,85,0.00,,---,0.00,VWS V15.00,2017-05-24 04:25:00,
2017-05-24 00:30:00,65.6,61.0,29.61,SSW,194,3.0,5.0,85,0.00,,---,0.00,VWS V15.00,2017-05-24 04:30:00,
2017-05-24 00:35:00,65.5,60.9,29.61,SSW,203,4.0,5.0,85,0.00,,---,0.00,VWS V15.00,2017-05-24 04:35:00,
2017-05-24 00:40:00,65.4,61.1,29.61,SSE,160,3.0,6.0,86,0.00,,---,0.00,VWS V15.00,2017-05-24 04:40:00,
2017-05-24 00:45:00,65.3,61.0,29.61,SE,139,2.0,7.0,86,0.00,,---,0.00,VWS V15.00,2017-05-24 04:45:00,
2017-05-24 00:50:00,65.2,60.9,29.61,SSE,158,5.0,6.0,86,0.00,,---,0.00,VWS V15.00,2017-05-24 04:50:00,
2017-05-24 00:55:00,65.2,60.9,29.61,ESE,102,0.0,7.0,86,0.00,,---,0.00,VWS V15.00,2017-05-24 04:55:00,
2017-05-24 01:00:00,65.1,60.8,29.60,SE,140,1.0,8.0,86,0.00,,---,0.00,VWS V15.00,2017-05-24 05:00:00,
2017-05-24 01:05:00,65.0,60.7,29.60,SE,146,5.0,10.0,86,0.00,,---,0.00,VWS V15.00,2017-05-24 05:05:00,
2017-05-24 01:10:00,64.9,60.6,29.60,South,184,2.0,9.0,86,0.00,,---,0.00,VWS V15.00,2017-05-24 05:10:00,
2017-05-24 01:15:00,64.9,60.6,29.60,SSE,154,1.0,4.0,86,0.00,,---,0.00,VWS V15.00,2017-05-24 05:15:00,
2017-05-24 01:20:00,64.7,60.1,29.60,SSE,155,1.0,9.0,85,0.00,,---,0.00,VWS V15.00,2017-05-24 05:20:00,
2017-05-24 01:25:00,64.7,60.1,29.60,SSE,166,1.0,8.0,85,0.00,,---,0.00,VWS V15.00,2017-05-24 05:25:00,
2017-05-24 01:30:00,64.6,60.0,29.60,SSE,153,1.0,5.0,85,0.00,,---,0.00,VWS V15.00,2017-05-24 05:30:00,
2017-05-24 01:35:00,64.5,59.9,29.59,SSW,195,4.0,4.0,85,0.00,,---,0.00,VWS V15.00,2017-05-24 05:35:00,
2017-05-24 01:40:00,64.5,59.9,29.59,SSE,164,2.0,6.0,85,0.00,,---,0.00,VWS V15.00,2017-05-24 05:40:00,
2017-05-24 01:45:00,64.4,59.8,29.58,SSW,192,0.0,4.0,85,0.00,,---,0.00,VWS V15.00,2017-05-24 05:45:00,
2017-05-24 01:50:00,64.3,60.0,29.58,South,186,2.0,7.0,86,0.00,,---,0.00,VWS V15.00,2017-05-24 05:50:00,
2017-05-24 01:55:00,64.3,60.0,29.58,South,176,3.0,3.0,86,0.00,,---,0.00,VWS V15.00,2017-05-24 05:55:00,
2017-05-24 02:00:00,64.2,59.9,29.57,SE,133,1.0,5.0,86,0.00,,---,0.00,VWS V15.00,2017-05-24 06:00:00,
2017-05-24 02:05:00,64.1,59.8,29.57,SE,131,1.0,3.0,86,0.00,,---,0.00,VWS V15.00,2017-05-24 06:05:00,
2017-05-24 02:10:00,64.1,59.8,29.57,South,186,0.0,1.0,86,0.00,,---,0.00,VWS V15.00,2017-05-24 06:10:00,
2017-05-24 02:15:00,63.9,59.6,29.57,SE,127,0.0,0.0,86,0.00,,---,0.00,VWS V15.00,2017-05-24 06:15:00,
2017-05-24 02:20:00,63.7,59.8,29.57,SE,127,0.0,0.0,87,0.00,,---,0.00,VWS V15.00,2017-05-24 06:20:00,
2017-05-24 02:25:00,63.5,59.6,29.57,SSE,148,0.0,0.0,87,0.00,,---,0.00,VWS V15.00,2017-05-24 06:25:00,
2017-05-24 02:30:00,63.4,59.5,29.57,SSW,200,2.0,4.0,87,0.00,,---,0.00,VWS V15.00,2017-05-24 06:30:00,
2017-05-24 02:35:00,63.3,59.4,29.57,SW,224,2.0,3.0,87,0.00,,---,0.00,VWS V15.00,2017-05-24 06:35:00,
2017-05-24 02:40:00,63.2,59.6,29.57,SW,225,0.0,2.0,88,0.00,,---,0.00,VWS V15.00,2017-05-24 06:40:00,
2017-05-24 02:45:00,63.0,59.4,29.57,ESE,123,0.0,1.0,88,0.00,,---,0.00,VWS V15.00,2017-05-24 06:45:00,
2017-05-24 02:50:00,62.9,59.3,29.56,SE,124,0.0,0.0,88,0.00,,---,0.00,VWS V15.00,2017-05-24 06:50:00,
2017-05-24 02:55:00,62.8,59.2,29.56,SE,124,0.0,0.0,88,0.00,,---,0.00,VWS V15.00,2017-05-24 06:55:00,
2017-05-24 03:00:00,62.7,59.1,29.56,SE,124,0.0,0.0,88,0.00,,---,0.00,VWS V15.00,2017-05-24 07:00:00,
2017-05-24 03:10:00,62.6,59.3,29.56,SE,124,0.0,0.0,89,0.00,,---,0.00,VWS V15.00,2017-05-24 07:10:00,
2017-05-24 03:15:00,62.5,59.2,29.56,SSE,160,0.0,0.0,89,0.00,,---,0.00,VWS V15.00,2017-05-24 07:15:00,
2017-05-24 03:20:00,62.5,59.2,29.56,SSE,160,0.0,0.0,89,0.00,,---,0.00,VWS V15.00,2017-05-24 07:20:00,
2017-05-24 03:25:00,62.4,59.1,29.55,SSE,159,0.0,0.0,89,0.00,,---,0.00,VWS V15.00,2017-05-24 07:25:00,
2017-05-24 03:30:00,62.4,59.1,29.55,SSE,148,0.0,4.0,89,0.00,,---,0.00,VWS V15.00,2017-05-24 07:30:00,
2017-05-24 03:40:00,62.6,59.3,29.55,SSW,195,2.0,4.0,89,0.00,,---,0.00,VWS V15.00,2017-05-24 07:40:00,
2017-05-24 03:45:00,62.7,59.4,29.55,South,188,1.0,3.0,89,0.00,,---,0.00,VWS V15.00,2017-05-24 07:45:00,
2017-05-24 03:50:00,62.6,59.3,29.55,SSE,158,2.0,3.0,89,0.00,,---,0.00,VWS V15.00,2017-05-24 07:50:00,
2017-05-24 03:55:00,62.6,59.3,29.54,SE,134,1.0,3.0,89,0.00,,---,0.00,VWS V15.00,2017-05-24 07:55:00,
2017-05-24 04:00:00,62.6,59.3,29.54,SSE,155,2.0,3.0,89,0.00,,---,0.00,VWS V15.00,2017-05-24 08:00:00,
2017-05-24 04:05:00,62.5,59.5,29.54,SSW,207,1.0,2.0,90,0.00,,---,0.00,VWS V15.00,2017-05-24 08:05:00,
2017-05-24 04:10:00,62.4,59.4,29.54,SSE,166,1.0,4.0,90,0.00,,---,0.00,VWS V15.00,2017-05-24 08:10:00,
2017-05-24 04:15:00,62.3,59.3,29.54,South,188,2.0,3.0,90,0.00,,---,0.00,VWS V15.00,2017-05-24 08:15:00,
2017-05-24 04:25:00,62.1,59.1,29.54,SSW,196,0.0,0.0,90,0.00,,---,0.00,VWS V15.00,2017-05-24 08:25:00,
2017-05-24 04:30:00,62.0,59.3,29.54,SE,130,0.0,0.0,91,0.00,,---,0.00,VWS V15.00,2017-05-24 08:30:00,
2017-05-24 04:35:00,61.7,59.0,29.53,SE,130,0.0,0.0,91,0.00,,---,0.00,VWS V15.00,2017-05-24 08:35:00,
2017-05-24 04:45:00,61.2,58.9,29.52,SE,130,0.0,0.0,92,0.00,,---,0.00,VWS V15.00,2017-05-24 08:45:00,
2017-05-24 04:55:00,60.7,58.7,29.52,SE,130,0.0,0.0,93,0.00,,---,0.00,VWS V15.00,2017-05-24 08:55:00,
2017-05-24 05:00:00,60.3,58.3,29.52,SE,129,0.0,0.0,93,0.00,,---,0.00,VWS V15.00,2017-05-24 09:00:00,
2017-05-24 05:05:00,60.0,58.0,29.52,SE,130,0.0,0.0,93,0.00,,---,0.00,VWS V15.00,2017-05-24 09:05:00,
2017-05-24 05:10:00,59.9,58.2,29.52,SE,130,0.0,0.0,94,0.00,,---,0.00,VWS V15.00,2017-05-24 09:10:00,
2017-05-24 05:15:00,59.7,58.3,29.52,SE,130,0.0,0.0,95,0.00,,---,0.00,VWS V15.00,2017-05-24 09:15:00,
2017-05-24 05:20:00,59.7,58.3,29.52,SE,129,0.0,0.0,95,0.00,,---,0.00,VWS V15.00,2017-05-24 09:20:00,
2017-05-24 05:25:00,59.7,58.3,29.52,SE,130,0.0,0.0,95,0.00,,---,0.00,VWS V15.00,2017-05-24 09:25:00,
2017-05-24 05:30:00,59.6,58.5,29.52,SE,130,0.0,0.0,96,0.00,,---,0.00,VWS V15.00,2017-05-24 09:30:00,
2017-05-24 05:35:00,59.6,58.5,29.52,SE,130,0.0,0.0,96,0.00,,---,0.00,VWS V15.00,2017-05-24 09:35:00,
2017-05-24 05:40:00,59.5,58.4,29.52,SE,129,0.0,0.0,96,0.00,,---,0.00,VWS V15.00,2017-05-24 09:40:00,
2017-05-24 05:45:00,59.6,58.5,29.52,ESE,122,0.0,1.0,96,0.00,,---,0.00,VWS V15.00,2017-05-24 09:45:00,
2017-05-24 05:50:00,59.7,58.8,29.52,SE,124,0.0,0.0,97,0.00,,---,0.00,VWS V15.00,2017-05-24 09:50:00,
2017-05-24 06:00:00,59.6,58.8,29.52,ESE,123,0.0,0.0,97,0.00,,---,0.00,VWS V15.00,2017-05-24 10:00:00,
2017-05-24 06:10:00,59.7,58.8,29.52,ESE,122,0.0,0.0,97,0.00,,---,0.00,VWS V15.00,2017-05-24 10:10:00,
2017-05-24 06:20:00,59.8,59.0,29.51,ESE,123,0.0,0.0,97,0.00,,---,0.00,VWS V15.00,2017-05-24 10:20:00,
2017-05-24 06:25:00,59.8,59.0,29.51,ESE,123,0.0,0.0,97,0.00,,---,0.00,VWS V15.00,2017-05-24 10:25:00,
2017-05-24 06:30:00,59.8,59.0,29.52,ESE,123,0.0,0.0,97,0.00,,---,0.00,VWS V15.00,2017-05-24 10:30:00,
2017-05-24 06:35:00,59.8,59.0,29.51,ESE,123,0.0,0.0,97,0.00,,---,0.00,VWS V15.00,2017-05-24 10:35:00,
2017-05-24 06:40:00,59.7,58.8,29.51,ESE,116,0.0,0.0,97,0.00,,---,0.00,VWS V15.00,2017-05-24 10:40:00,
2017-05-24 06:50:00,59.9,59.0,29.50,NE,34,0.0,1.0,97,0.00,,---,0.00,VWS V15.00,2017-05-24 10:50:00,
2017-05-24 06:55:00,60.0,59.2,29.50,ESE,113,2.0,3.0,97,0.00,,---,0.00,VWS V15.00,2017-05-24 10:55:00,
2017-05-24 07:05:00,60.0,59.2,29.50,East,94,1.0,1.0,97,0.00,,---,0.00,VWS V15.00,2017-05-24 11:05:00,
2017-05-24 07:10:00,60.1,59.2,29.50,East,79,0.0,3.0,97,0.00,,---,0.00,VWS V15.00,2017-05-24 11:10:00,
2017-05-24 07:15:00,60.2,59.3,29.50,East,96,0.0,1.0,97,0.00,,---,0.00,VWS V15.00,2017-05-24 11:15:00,
2017-05-24 07:20:00,60.2,59.6,29.50,SE,133,0.0,3.0,98,0.00,,---,0.00,VWS V15.00,2017-05-24 11:20:00,
2017-05-24 07:25:00,60.3,59.7,29.50,ESE,103,0.0,0.0,98,0.00,,---,0.00,VWS V15.00,2017-05-24 11:25:00,
2017-05-24 07:30:00,60.4,59.8,29.50,ESE,121,1.0,2.0,98,0.00,,---,0.00,VWS V15.00,2017-05-24 11:30:00,
2017-05-24 07:35:00,60.4,59.8,29.50,SE,139,0.0,3.0,98,0.00,,---,0.00,VWS V15.00,2017-05-24 11:35:00,
2017-05-24 07:40:00,60.6,60.0,29.51,SSE,148,0.0,2.0,98,0.00,,---,0.00,VWS V15.00,2017-05-24 11:40:00,
2017-05-24 07:45:00,60.7,60.1,29.51,SE,135,2.0,3.0,98,0.00,,---,0.00,VWS V15.00,2017-05-24 11:45:00,
2017-05-24 07:50:00,60.8,60.2,29.51,SSE,155,1.0,4.0,98,0.00,,---,0.00,VWS V15.00,2017-05-24 11:50:00,
2017-05-24 07:55:00,60.8,60.2,29.51,SE,124,0.0,4.0,98,0.00,,---,0.00,VWS V15.00,2017-05-24 11:55:00,
2017-05-24 08:00:00,60.9,60.3,29.51,SE,132,0.0,4.0,98,0.00,,---,0.00,VWS V15.00,2017-05-24 12:00:00,
2017-05-24 08:05:00,60.9,60.0,29.51,ESE,122,0.0,4.0,97,0.00,,---,0.00,VWS V15.00,2017-05-24 12:05:00,
2017-05-24 08:10:00,60.9,60.0,29.51,ESE,110,1.0,2.0,97,0.00,,---,0.00,VWS V15.00,2017-05-24 12:10:00,
2017-05-24 08:15:00,61.0,60.2,29.50,SE,137,0.0,4.0,97,0.00,,---,0.00,VWS V15.00,2017-05-24 12:15:00,
2017-05-24 08:20:00,61.2,60.3,29.50,SE,132,3.0,4.0,97,0.00,,---,0.00,VWS V15.00,2017-05-24 12:20:00,